Time;durP1;ratioP1;P1;durP2;ratioP2;P2;SDS_P1;SDS_P2;PMS_P1;PMS_P2;Temp;Humidity;BMP_temperature;BMP_pressure;BME280_temperature;BME280_humidity;BME280_pressure;Samples;Min_cycle;Max_cycle;Signal;HPM_P1;HPM_P2
2021/05/27 00:01:58;;;;;;;0.20;0.20;;;;;;;;;;5038663;28;20045;-79
2021/05/27 00:04:24;;;;;;;0.28;0.28;;;;;;;;;;5041792;28;20026;-78
2021/05/27 00:06:50;;;;;;;0.75;0.52;;;;;;;;;;5041091;28;20049;-79
2021/05/27 00:09:16;;;;;;;0.50;0.32;;;;;;;;;;5044065;28;20040;-79
2021/05/27 00:11:42;;;;;;;2.25;0.40;;;;;;;;;;5034582;28;20044;-79
2021/05/27 00:14:08;;;;;;;0.40;0.40;;;;;;;;;;5036828;28;20527;-78
2021/05/27 00:16:34;;;;;;;0.68;0.47;;;;;;;;;;5037783;28;20037;-78
2021/05/27 00:19:00;;;;;;;0.30;0.30;;;;;;;;;;5041677;28;20032;-79
2021/05/27 00:21:26;;;;;;;0.40;0.40;;;;;;;;;;5046736;28;20053;-79
2021/05/27 00:23:52;;;;;;;0.80;0.20;;;;;;;;;;5036026;28;20544;-79
2021/05/27 00:26:18;;;;;;;0.60;0.60;;;;;;;;;;5036516;28;20093;-79
2021/05/27 00:28:44;;;;;;;0.68;0.40;;;;;;;;;;5037584;28;20029;-79
2021/05/27 00:31:12;;;;;;;0.45;0.43;;;;;;;;;;5037641;28;20040;-80
2021/05/27 00:33:38;;;;;;;0.40;0.40;;;;;;;;;;5036276;28;20017;-79
2021/05/27 00:36:04;;;;;;;0.68;0.40;;;;;;;;;;5034763;28;20026;-78
2021/05/27 00:38:31;;;;;;;1.27;0.40;;;;;;;;;;5035135;28;20168;-79
2021/05/27 00:40:57;;;;;;;1.65;0.40;;;;;;;;;;5032909;28;20033;-78
2021/05/27 00:43:23;;;;;;;0.40;0.30;;;;;;;;;;5034010;28;20036;-79
2021/05/27 00:45:49;;;;;;;0.47;0.45;;;;;;;;;;5036146;28;20469;-79
2021/05/27 00:51:00;;;;;;;0.30;0.30;;;;;;;;;;5035769;28;20045;-79
2021/05/27 00:53:57;;;;;;;1.45;0.50;;;;;;;;;;5079216;28;20463;-80
2021/05/27 00:56:24;;;;;;;0.55;0.55;;;;;;;;;;5085557;28;20080;-79
2021/05/27 00:58:50;;;;;;;0.35;0.35;;;;;;;;;;5092196;28;20021;-80
2021/05/27 01:01:16;;;;;;;0.40;0.40;;;;;;;;;;5093753;28;20020;-79
2021/05/27 01:03:43;;;;;;;0.57;0.50;;;;;;;;;;5080103;28;20021;-79
2021/05/27 01:06:09;;;;;;;0.63;0.63;;;;;;;;;;5053273;28;20078;-79
2021/05/27 01:08:35;;;;;;;0.50;0.50;;;;;;;;;;5053469;28;20493;-80
2021/05/27 01:11:01;;;;;;;0.57;0.55;;;;;;;;;;5051262;28;20136;-80
2021/05/27 01:13:27;;;;;;;0.30;0.30;;;;;;;;;;5052792;28;20040;-80
2021/05/27 01:15:54;;;;;;;0.40;0.30;;;;;;;;;;5053401;28;20462;-79
2021/05/27 01:18:21;;;;;;;0.50;0.22;;;;;;;;;;5051503;28;20048;-80
2021/05/27 01:20:49;;;;;;;0.35;0.30;;;;;;;;;;5052890;28;20433;-79
2021/05/27 01:23:15;;;;;;;0.47;0.40;;;;;;;;;;5060993;28;20045;-79
2021/05/27 01:25:42;;;;;;;0.75;0.50;;;;;;;;;;5074460;28;20025;-79
2021/05/27 01:28:09;;;;;;;0.38;0.30;;;;;;;;;;5071754;28;20179;-79
2021/05/27 01:30:35;;;;;;;0.38;0.32;;;;;;;;;;5071920;28;20108;-79
2021/05/27 01:33:01;;;;;;;0.30;0.30;;;;;;;;;;5070694;28;20037;-80
2021/05/27 01:35:27;;;;;;;0.20;0.20;;;;;;;;;;5073852;28;20044;-79
2021/05/27 01:37:54;;;;;;;1.00;0.43;;;;;;;;;;5074792;28;20029;-79
2021/05/27 01:40:24;;;;;;;0.40;0.40;;;;;;;;;;5073264;28;20036;-79
2021/05/27 01:42:50;;;;;;;0.80;0.52;;;;;;;;;;5066807;28;20031;-79
2021/05/27 01:45:18;;;;;;;0.30;0.30;;;;;;;;;;5050359;28;20037;-79
2021/05/27 01:47:44;;;;;;;0.38;0.30;;;;;;;;;;5052862;28;20056;-79
2021/05/27 01:50:11;;;;;;;1.55;0.43;;;;;;;;;;5054088;28;20097;-79
2021/05/27 01:52:37;;;;;;;0.77;0.38;;;;;;;;;;5075317;23;20040;-81
2021/05/27 01:55:04;;;;;;;0.40;0.40;;;;;;;;;;5021833;28;20092;-81
2021/05/27 01:57:30;;;;;;;0.43;0.43;;;;;;;;;;5032180;28;20367;-81
2021/05/27 01:59:57;;;;;;;1.45;0.40;;;;;;;;;;5032656;28;20501;-81
2021/05/27 02:02:23;;;;;;;0.40;0.40;;;;;;;;;;5033931;28;20029;-81
2021/05/27 02:04:49;;;;;;;0.38;0.38;;;;;;;;;;5023156;28;20045;-81
2021/05/27 02:07:15;;;;;;;0.40;0.30;;;;;;;;;;5020493;28;20105;-81
2021/05/27 02:09:42;;;;;;;0.40;0.40;;;;;;;;;;5019961;28;20057;-81
2021/05/27 02:12:08;;;;;;;0.95;0.75;;;;;;;;;;5008466;28;20031;-81
2021/05/27 02:14:34;;;;;;;0.43;0.43;;;;;;;;;;5005603;28;20536;-81
2021/05/27 02:17:00;;;;;;;0.40;0.30;;;;;;;;;;5002761;28;20037;-81
2021/05/27 02:19:26;;;;;;;0.50;0.50;;;;;;;;;;5003563;28;20022;-81
2021/05/27 02:21:53;;;;;;;0.88;0.60;;;;;;;;;;5015493;28;20343;-82
2021/05/27 02:24:19;;;;;;;0.30;0.30;;;;;;;;;;5021044;28;20038;-81
2021/05/27 02:26:45;;;;;;;0.85;0.60;;;;;;;;;;5023438;28;20022;-81
2021/05/27 02:29:11;;;;;;;1.15;0.60;;;;;;;;;;5027292;28;20022;-81
2021/05/27 02:31:38;;;;;;;0.40;0.40;;;;;;;;;;5024319;28;20025;-82
2021/05/27 02:34:04;;;;;;;0.47;0.47;;;;;;;;;;5026804;28;20494;-82
2021/05/27 02:36:30;;;;;;;0.52;0.50;;;;;;;;;;5025918;28;20064;-82
2021/05/27 02:38:57;;;;;;;0.47;0.47;;;;;;;;;;5011545;28;20049;-82
2021/05/27 02:41:23;;;;;;;0.40;0.40;;;;;;;;;;5005926;28;20434;-80
2021/05/27 02:43:50;;;;;;;0.57;0.52;;;;;;;;;;5002216;28;20022;-81
2021/05/27 02:46:16;;;;;;;0.73;0.73;;;;;;;;;;5001693;28;20036;-80
2021/05/27 02:48:42;;;;;;;0.70;0.70;;;;;;;;;;5009208;28;20033;-81
2021/05/27 02:51:08;;;;;;;0.43;0.40;;;;;;;;;;5020634;28;20037;-82
2021/05/27 02:53:34;;;;;;;0.65;0.60;;;;;;;;;;5013265;28;20068;-82
2021/05/27 02:56:01;;;;;;;0.52;0.52;;;;;;;;;;5009400;28;20025;-80
2021/05/27 02:58:27;;;;;;;0.65;0.60;;;;;;;;;;5004329;28;20022;-82
2021/05/27 03:00:53;;;;;;;2.25;0.60;;;;;;;;;;5022332;28;20030;-82
2021/05/27 03:03:22;;;;;;;0.63;0.52;;;;;;;;;;5021748;28;20037;-83
2021/05/27 03:05:49;;;;;;;0.40;0.40;;;;;;;;;;5023427;28;20060;-83
2021/05/27 03:08:15;;;;;;;1.48;0.40;;;;;;;;;;5026840;28;20022;-83
2021/05/27 03:10:41;;;;;;;0.77;0.40;;;;;;;;;;5013136;28;20045;-83
2021/05/27 03:13:08;;;;;;;1.27;0.50;;;;;;;;;;5011834;28;20041;-82
2021/05/27 03:15:34;;;;;;;1.35;0.70;;;;;;;;;;5010524;28;20026;-82
2021/05/27 03:18:04;;;;;;;0.98;0.55;;;;;;;;;;5020983;28;20029;-83
2021/05/27 03:20:30;;;;;;;0.73;0.60;;;;;;;;;;5030297;28;20084;-82
2021/05/27 03:22:57;;;;;;;0.88;0.60;;;;;;;;;;5016004;28;20037;-82
2021/05/27 03:25:23;;;;;;;1.13;0.43;;;;;;;;;;5019657;28;20094;-82
2021/05/27 03:27:49;;;;;;;0.65;0.57;;;;;;;;;;5025018;28;20122;-81
2021/05/27 03:30:16;;;;;;;0.50;0.50;;;;;;;;;;5029401;28;20029;-82
2021/05/27 03:32:42;;;;;;;0.57;0.55;;;;;;;;;;5029605;28;20041;-82
2021/05/27 03:35:09;;;;;;;0.60;0.60;;;;;;;;;;5030022;28;20030;-83
2021/05/27 03:37:35;;;;;;;0.55;0.50;;;;;;;;;;5025593;28;20029;-84
2021/05/27 03:40:14;;;;;;;0.40;0.40;;;;;;;;;;5024885;28;20026;-83
2021/05/27 03:42:46;;;;;;;0.55;0.50;;;;;;;;;;5025609;28;20030;-84
2021/05/27 03:45:14;;;;;;;0.60;0.60;;;;;;;;;;5026092;28;20083;-83
2021/05/27 03:47:40;;;;;;;0.50;0.50;;;;;;;;;;5025187;28;20030;-83
2021/05/27 03:50:07;;;;;;;0.50;0.50;;;;;;;;;;5026380;28;20057;-82
2021/05/27 03:52:33;;;;;;;0.90;0.50;;;;;;;;;;5024767;28;20059;-83
2021/05/27 03:55:00;;;;;;;0.60;0.60;;;;;;;;;;5013902;28;20064;-83
2021/05/27 03:57:26;;;;;;;2.75;0.63;;;;;;;;;;5007598;28;20045;-82
2021/05/27 04:02:42;;;;;;;0.63;0.60;;;;;;;;;;5008071;28;20041;-82
2021/05/27 04:07:53;;;;;;;0.43;0.43;;;;;;;;;;5020556;28;21032;-83
2021/05/27 04:10:19;;;;;;;0.98;0.50;;;;;;;;;;5018804;28;20321;-84
2021/05/27 04:12:46;;;;;;;0.90;0.90;;;;;;;;;;5026772;28;20010;-83
2021/05/27 04:15:29;;;;;;;0.50;0.50;;;;;;;;;;5028434;28;20022;-84
2021/05/27 04:17:55;;;;;;;1.27;0.52;;;;;;;;;;5035346;28;20006;-83
2021/05/27 04:20:22;;;;;;;0.20;0.20;;;;;;;;;;5027272;28;20034;-85
2021/05/27 04:22:49;;;;;;;0.70;0.63;;;;;;;;;;5021095;28;20387;-84
2021/05/27 04:25:16;;;;;;;1.75;0.60;;;;;;;;;;5016314;28;20046;-84
2021/05/27 04:27:42;;;;;;;2.70;0.70;;;;;;;;;;5006865;28;20046;-84
2021/05/27 04:30:13;;;;;;;0.40;0.40;;;;;;;;;;5001250;28;20031;-83
2021/05/27 04:32:54;;;;;;;1.75;0.55;;;;;;;;;;4998301;28;20030;-84
2021/05/27 04:35:20;;;;;;;0.40;0.40;;;;;;;;;;5000535;28;20026;-84
2021/05/27 04:37:46;;;;;;;0.60;0.40;;;;;;;;;;5000166;28;20029;-84
2021/05/27 04:40:13;;;;;;;0.77;0.77;;;;;;;;;;5002863;28;20026;-84
2021/05/27 04:42:39;;;;;;;2.53;0.68;;;;;;;;;;4999139;28;20154;-84
2021/05/27 04:45:05;;;;;;;0.30;0.30;;;;;;;;;;5008585;28;20049;-84
2021/05/27 04:47:32;;;;;;;2.58;0.50;;;;;;;;;;5013263;28;20033;-84
2021/05/27 04:49:58;;;;;;;0.30;0.30;;;;;;;;;;5006368;28;20073;-84
2021/05/27 04:52:24;;;;;;;0.50;0.50;;;;;;;;;;5002809;28;20026;-84
2021/05/27 04:54:50;;;;;;;0.45;0.40;;;;;;;;;;5000745;28;20054;-84
2021/05/27 04:57:16;;;;;;;0.38;0.38;;;;;;;;;;5002610;28;20026;-84
2021/05/27 04:59:42;;;;;;;0.88;0.70;;;;;;;;;;5006150;28;20033;-83
2021/05/27 05:02:08;;;;;;;0.65;0.50;;;;;;;;;;5000318;28;20054;-83
2021/05/27 05:04:34;;;;;;;0.45;0.45;;;;;;;;;;5001952;28;20026;-84
2021/05/27 05:07:00;;;;;;;0.82;0.50;;;;;;;;;;5018930;28;20034;-85
2021/05/27 05:09:26;;;;;;;2.38;0.70;;;;;;;;;;5020781;28;20026;-84
2021/05/27 05:11:52;;;;;;;0.60;0.60;;;;;;;;;;5022593;28;20026;-84
2021/05/27 05:14:18;;;;;;;1.17;0.50;;;;;;;;;;5019944;28;20025;-83
2021/05/27 05:16:44;;;;;;;1.38;0.65;;;;;;;;;;5020986;28;20021;-84
2021/05/27 05:19:10;;;;;;;0.43;0.43;;;;;;;;;;5020860;28;20056;-84
2021/05/27 05:21:36;;;;;;;0.63;0.63;;;;;;;;;;5021321;28;20029;-84
2021/05/27 05:24:03;;;;;;;0.40;0.40;;;;;;;;;;5021753;28;20434;-84
2021/05/27 05:26:29;;;;;;;0.65;0.60;;;;;;;;;;5013869;28;20014;-84
2021/05/27 05:28:55;;;;;;;0.47;0.47;;;;;;;;;;5009039;28;20464;-84
2021/05/27 05:31:21;;;;;;;0.60;0.55;;;;;;;;;;5000848;28;20030;-84
2021/05/27 05:33:48;;;;;;;0.50;0.50;;;;;;;;;;5000378;28;20390;-84
2021/05/27 05:36:14;;;;;;;0.70;0.70;;;;;;;;;;5002095;28;20015;-83
2021/05/27 05:38:40;;;;;;;2.67;0.75;;;;;;;;;;5002579;28;20038;-85
2021/05/27 05:41:07;;;;;;;1.15;0.90;;;;;;;;;;5005314;28;20026;-84
2021/05/27 05:43:33;;;;;;;1.02;0.77;;;;;;;;;;5006576;28;20665;-84
2021/05/27 05:45:59;;;;;;;1.73;0.70;;;;;;;;;;5022673;28;20022;-84
2021/05/27 05:48:25;;;;;;;0.57;0.57;;;;;;;;;;5024508;28;20013;-85
2021/05/27 05:50:53;;;;;;;1.48;0.63;;;;;;;;;;5022922;28;20052;-85
2021/05/27 05:53:23;;;;;;;0.50;0.47;;;;;;;;;;5021363;28;20144;-85
2021/05/27 05:55:49;;;;;;;1.63;0.70;;;;;;;;;;5011241;28;20037;-84
2021/05/27 05:58:16;;;;;;;1.58;0.50;;;;;;;;;;5009634;28;20121;-84
2021/05/27 06:00:42;;;;;;;1.23;0.60;;;;;;;;;;5018069;28;20053;-84
2021/05/27 06:03:08;;;;;;;1.40;0.80;;;;;;;;;;5025239;28;20030;-84
2021/05/27 06:05:34;;;;;;;1.85;0.52;;;;;;;;;;5027183;28;20525;-84
2021/05/27 06:08:00;;;;;;;2.08;0.52;;;;;;;;;;5025184;28;20034;-85
2021/05/27 06:10:26;;;;;;;3.65;1.10;;;;;;;;;;5023895;28;20034;-85
2021/05/27 06:12:53;;;;;;;1.20;1.00;;;;;;;;;;5024553;28;20033;-85
2021/05/27 06:15:22;;;;;;;0.80;0.68;;;;;;;;;;5024080;28;20033;-84
2021/05/27 06:17:49;;;;;;;0.65;0.60;;;;;;;;;;5026247;28;20505;-84
2021/05/27 06:20:16;;;;;;;0.60;0.60;;;;;;;;;;5024923;28;20029;-84
2021/05/27 06:22:42;;;;;;;1.17;0.32;;;;;;;;;;5025052;28;20034;-85
2021/05/27 06:25:09;;;;;;;1.63;0.68;;;;;;;;;;5023842;28;20026;-84
2021/05/27 06:27:35;;;;;;;1.15;0.60;;;;;;;;;;5016467;28;20497;-84
2021/05/27 06:30:01;;;;;;;4.68;0.80;;;;;;;;;;5024296;28;20084;-85
2021/05/27 06:32:29;;;;;;;1.15;0.70;;;;;;;;;;5023879;28;20029;-84
2021/05/27 06:34:55;;;;;;;0.95;0.50;;;;;;;;;;5023656;28;20018;-84
2021/05/27 06:37:21;;;;;;;2.25;0.70;;;;;;;;;;5024502;28;20057;-85
2021/05/27 06:39:48;;;;;;;0.50;0.50;;;;;;;;;;5023669;28;20537;-85
2021/05/27 06:42:14;;;;;;;0.50;0.50;;;;;;;;;;5024859;28;20455;-84
2021/05/27 06:44:40;;;;;;;0.50;0.50;;;;;;;;;;5029431;28;20026;-83
2021/05/27 06:47:06;;;;;;;0.52;0.52;;;;;;;;;;5030168;28;20089;-83
2021/05/27 06:49:32;;;;;;;0.57;0.40;;;;;;;;;;5029665;28;20034;-84
2021/05/27 06:52:00;;;;;;;0.73;0.73;;;;;;;;;;5026365;28;20042;-84
2021/05/27 06:54:26;;;;;;;1.05;0.70;;;;;;;;;;5028421;28;20454;-84
2021/05/27 06:56:52;;;;;;;1.80;0.57;;;;;;;;;;5022212;28;20022;-84
2021/05/27 06:59:19;;;;;;;1.10;0.50;;;;;;;;;;5018315;28;20018;-84
2021/05/27 07:01:45;;;;;;;1.10;0.70;;;;;;;;;;5013582;28;20037;-84
2021/05/27 07:04:11;;;;;;;0.60;0.40;;;;;;;;;;5028409;28;20029;-83
2021/05/27 07:06:37;;;;;;;0.52;0.50;;;;;;;;;;5031378;28;20032;-84
2021/05/27 07:09:04;;;;;;;0.70;0.40;;;;;;;;;;5031801;28;20030;-84
2021/05/27 07:11:30;;;;;;;0.75;0.47;;;;;;;;;;5028853;28;20052;-85
2021/05/27 07:13:56;;;;;;;0.70;0.63;;;;;;;;;;5029869;28;20093;-84
2021/05/27 07:16:22;;;;;;;1.90;0.50;;;;;;;;;;5026925;28;20109;-84
2021/05/27 07:18:48;;;;;;;0.60;0.60;;;;;;;;;;5027616;28;20093;-84
2021/05/27 07:21:15;;;;;;;0.82;0.60;;;;;;;;;;5024455;28;20081;-84
2021/05/27 07:23:41;;;;;;;1.02;0.50;;;;;;;;;;5026575;28;20046;-84
2021/05/27 07:26:07;;;;;;;0.45;0.45;;;;;;;;;;5022048;28;20022;-84
2021/05/27 07:28:33;;;;;;;1.95;0.60;;;;;;;;;;5014792;28;20034;-84
2021/05/27 07:31:00;;;;;;;0.90;0.30;;;;;;;;;;5026063;28;20030;-83
2021/05/27 07:33:26;;;;;;;0.50;0.50;;;;;;;;;;5030006;28;20104;-84
2021/05/27 07:35:52;;;;;;;0.80;0.40;;;;;;;;;;5030899;28;20170;-84
2021/05/27 07:38:19;;;;;;;0.75;0.32;;;;;;;;;;5027102;28;20073;-84
2021/05/27 07:40:48;;;;;;;0.90;0.30;;;;;;;;;;5025854;28;20049;-85
2021/05/27 07:43:14;;;;;;;1.05;0.40;;;;;;;;;;5007598;28;20022;-85
2021/05/27 07:45:41;;;;;;;0.40;0.40;;;;;;;;;;5017005;28;20094;-84
2021/05/27 07:48:07;;;;;;;1.08;0.50;;;;;;;;;;5017257;28;20027;-83
2021/05/27 07:50:33;;;;;;;0.88;0.55;;;;;;;;;;5014759;28;20038;-83
2021/05/27 07:52:59;;;;;;;0.90;0.50;;;;;;;;;;5006148;28;20038;-84
2021/05/27 07:55:26;;;;;;;2.13;0.70;;;;;;;;;;5004615;28;20021;-84
2021/05/27 07:57:53;;;;;;;0.70;0.63;;;;;;;;;;5010728;28;20029;-84
2021/05/27 08:00:20;;;;;;;3.03;0.60;;;;;;;;;;5019608;28;20191;-84
2021/05/27 08:02:47;;;;;;;1.88;0.68;;;;;;;;;;5022208;28;20085;-83
2021/05/27 08:05:13;;;;;;;0.60;0.60;;;;;;;;;;5020721;28;20502;-84
2021/05/27 08:07:39;;;;;;;1.25;0.70;;;;;;;;;;5021673;28;20021;-84
2021/05/27 08:10:06;;;;;;;1.80;0.85;;;;;;;;;;5019087;28;20041;-84
2021/05/27 08:12:32;;;;;;;1.75;0.70;;;;;;;;;;5008417;28;20037;-84
2021/05/27 08:14:59;;;;;;;0.60;0.45;;;;;;;;;;5007875;28;20030;-84
2021/05/27 08:17:25;;;;;;;2.00;0.40;;;;;;;;;;5006299;28;20057;-84
2021/05/27 08:19:51;;;;;;;0.88;0.70;;;;;;;;;;5004578;28;20026;-84
2021/05/27 08:22:17;;;;;;;0.60;0.60;;;;;;;;;;5001554;28;20202;-84
2021/05/27 08:24:44;;;;;;;1.52;0.60;;;;;;;;;;5002623;28;20030;-84
2021/05/27 08:27:10;;;;;;;1.35;0.60;;;;;;;;;;5004140;28;20049;-84
2021/05/27 08:29:36;;;;;;;0.50;0.50;;;;;;;;;;5014153;28;20022;-83
2021/05/27 08:32:02;;;;;;;0.50;0.50;;;;;;;;;;5021794;28;20042;-84
2021/05/27 08:34:29;;;;;;;0.75;0.47;;;;;;;;;;5023545;28;20030;-84
2021/05/27 08:36:55;;;;;;;0.50;0.50;;;;;;;;;;5025930;28;20037;-83
2021/05/27 08:39:21;;;;;;;0.70;0.57;;;;;;;;;;5030270;28;20010;-83
2021/05/27 08:41:47;;;;;;;1.55;0.50;;;;;;;;;;5032573;28;20152;-83
2021/05/27 08:44:13;;;;;;;0.82;0.60;;;;;;;;;;5031868;28;20040;-84
2021/05/27 08:46:40;;;;;;;0.50;0.50;;;;;;;;;;5031091;28;20034;-84
2021/05/27 08:49:07;;;;;;;1.50;1.20;;;;;;;;;;5029711;28;20026;-84
2021/05/27 08:51:34;;;;;;;0.93;0.60;;;;;;;;;;5028614;28;20053;-84
2021/05/27 08:54:01;;;;;;;1.17;0.57;;;;;;;;;;5012357;28;20041;-82
2021/05/27 08:56:27;;;;;;;2.22;0.60;;;;;;;;;;5010536;28;20033;-83
2021/05/27 08:58:54;;;;;;;0.70;0.52;;;;;;;;;;5018312;28;20041;-84
2021/05/27 09:01:23;;;;;;;2.67;0.75;;;;;;;;;;5008784;28;20022;-83
2021/05/27 09:03:49;;;;;;;1.20;0.73;;;;;;;;;;5008820;28;20086;-83
2021/05/27 09:06:15;;;;;;;1.33;0.82;;;;;;;;;;5010266;28;20144;-83
2021/05/27 09:08:42;;;;;;;0.82;0.50;;;;;;;;;;5008921;28;20029;-83
2021/05/27 09:11:08;;;;;;;2.65;0.60;;;;;;;;;;5019142;28;20429;-83
2021/05/27 09:13:35;;;;;;;1.05;0.40;;;;;;;;;;5021115;28;20033;-84
2021/05/27 09:16:11;;;;;;;3.22;0.75;;;;;;;;;;5024625;28;20045;-83
2021/05/27 09:18:37;;;;;;;0.65;0.50;;;;;;;;;;5026249;28;20502;-84
2021/05/27 09:21:04;;;;;;;1.73;0.90;;;;;;;;;;5025908;28;20058;-83
2021/05/27 09:23:31;;;;;;;1.17;0.77;;;;;;;;;;5024794;28;20382;-83
2021/05/27 09:26:07;;;;;;;1.65;0.82;;;;;;;;;;5023820;28;20073;-84
2021/05/27 09:28:34;;;;;;;1.77;0.60;;;;;;;;;;5007248;28;20061;-83
2021/05/27 09:31:02;;;;;;;0.90;0.50;;;;;;;;;;5018217;28;20019;-83
2021/05/27 09:33:32;;;;;;;2.03;0.65;;;;;;;;;;5005636;28;20034;-85
2021/05/27 09:36:03;;;;;;;0.60;0.60;;;;;;;;;;5002962;28;20053;-84
2021/05/27 09:38:30;;;;;;;1.55;0.98;;;;;;;;;;5005087;28;20074;-84
2021/05/27 09:40:56;;;;;;;1.50;0.77;;;;;;;;;;5020519;28;20116;-84
2021/05/27 09:43:23;;;;;;;4.60;0.93;;;;;;;;;;5024832;28;20038;-84
2021/05/27 09:46:03;;;;;;;0.68;0.50;;;;;;;;;;5025649;28;20105;-84
2021/05/27 09:48:29;;;;;;;2.85;1.02;;;;;;;;;;5024852;28;20490;-84
2021/05/27 09:50:56;;;;;;;4.78;0.63;;;;;;;;;;5010033;28;20034;-85
2021/05/27 09:53:28;;;;;;;1.40;0.52;;;;;;;;;;5005373;28;20038;-84
2021/05/27 09:55:55;;;;;;;2.80;0.90;;;;;;;;;;5004978;28;20027;-84
2021/05/27 09:58:21;;;;;;;0.52;0.52;;;;;;;;;;5011832;28;20051;-84
2021/05/27 10:00:48;;;;;;;1.35;0.80;;;;;;;;;;5010156;28;20101;-84
2021/05/27 10:03:34;;;;;;;4.32;0.77;;;;;;;;;;5004928;28;20054;-84
2021/05/27 10:06:01;;;;;;;3.47;0.70;;;;;;;;;;5005865;28;20029;-85
2021/05/27 10:08:29;;;;;;;0.80;0.50;;;;;;;;;;5005107;28;20023;-84
2021/05/27 10:10:55;;;;;;;2.22;0.77;;;;;;;;;;5013884;28;20054;-84
2021/05/27 10:13:26;;;;;;;1.80;0.60;;;;;;;;;;5027051;28;20032;-84
2021/05/27 10:15:52;;;;;;;0.57;0.52;;;;;;;;;;5025828;28;20022;-85
2021/05/27 10:18:19;;;;;;;2.38;0.70;;;;;;;;;;5025721;28;20018;-85
2021/05/27 10:20:46;;;;;;;1.10;0.80;;;;;;;;;;5020807;28;20022;-84
2021/05/27 10:23:12;;;;;;;1.38;0.82;;;;;;;;;;5007159;28;20037;-84
2021/05/27 10:25:38;;;;;;;2.70;0.60;;;;;;;;;;5006400;28;20025;-85
2021/05/27 10:28:08;;;;;;;0.85;0.55;;;;;;;;;;5015963;28;20056;-85
2021/05/27 10:30:42;;;;;;;4.47;0.90;;;;;;;;;;5022358;28;20065;-84
2021/05/27 10:33:16;;;;;;;2.28;1.13;;;;;;;;;;5025910;28;20026;-84
2021/05/27 10:35:57;;;;;;;0.55;0.55;;;;;;;;;;5029454;28;20014;-85
2021/05/27 10:38:39;;;;;;;2.47;0.43;;;;;;;;;;5030198;28;20140;-85
2021/05/27 10:41:11;;;;;;;1.40;0.70;;;;;;;;;;5035532;28;20030;-84
2021/05/27 10:43:37;;;;;;;0.65;0.35;;;;;;;;;;5036320;28;20038;-84
2021/05/27 10:46:04;;;;;;;1.17;0.82;;;;;;;;;;5035696;28;20053;-85
2021/05/27 10:48:38;;;;;;;0.88;0.80;;;;;;;;;;5036381;28;20030;-85
2021/05/27 10:51:22;;;;;;;0.65;0.50;;;;;;;;;;5022537;28;20034;-85
2021/05/27 10:53:50;;;;;;;2.13;0.95;;;;;;;;;;5017351;28;20039;-85
2021/05/27 10:56:17;;;;;;;1.52;0.50;;;;;;;;;;5017623;28;20018;-84
2021/05/27 10:58:51;;;;;;;1.83;0.93;;;;;;;;;;5022026;28;20029;-84
2021/05/27 11:01:29;;;;;;;0.93;0.63;;;;;;;;;;5037725;28;20121;-84
2021/05/27 11:03:59;;;;;;;0.95;0.65;;;;;;;;;;5036935;28;20026;-84
2021/05/27 11:06:25;;;;;;;2.47;0.90;;;;;;;;;;5037180;28;20021;-84
2021/05/27 11:11:36;;;;;;;1.17;0.90;;;;;;;;;;5012171;28;20038;-84
2021/05/27 11:14:18;;;;;;;2.85;0.90;;;;;;;;;;5006847;28;20037;-84
2021/05/27 11:25:12;;;;;;;0.70;0.50;;;;;;;;;;5002840;28;20030;-84
2021/05/27 11:27:39;;;;;;;0.63;0.55;;;;;;;;;;5008025;28;20029;-84
2021/05/27 11:30:24;;;;;;;2.50;0.52;;;;;;;;;;5005640;28;20026;-84
2021/05/27 11:32:57;;;;;;;0.60;0.60;;;;;;;;;;5010267;28;20026;-84
2021/05/27 11:35:27;;;;;;;0.50;0.50;;;;;;;;;;5015951;28;20042;-83
2021/05/27 11:37:53;;;;;;;0.82;0.40;;;;;;;;;;5015803;28;20039;-83
2021/05/27 11:40:21;;;;;;;0.80;0.60;;;;;;;;;;5027372;28;20044;-84
2021/05/27 11:42:54;;;;;;;2.53;0.80;;;;;;;;;;5036652;28;20077;-84
2021/05/27 11:45:21;;;;;;;2.85;1.30;;;;;;;;;;5036611;28;20029;-84
2021/05/27 11:48:06;;;;;;;1.30;1.08;;;;;;;;;;5033447;28;20014;-83
2021/05/27 11:50:32;;;;;;;2.47;0.90;;;;;;;;;;5017295;28;20026;-84
2021/05/27 11:53:00;;;;;;;1.92;1.00;;;;;;;;;;5015768;28;20057;-85
2021/05/27 11:55:27;;;;;;;1.85;0.50;;;;;;;;;;5013526;28;20022;-85
2021/05/27 11:57:54;;;;;;;1.17;0.75;;;;;;;;;;5006797;28;20032;-85
2021/05/27 12:00:23;;;;;;;0.40;0.40;;;;;;;;;;5020083;28;20038;-85
2021/05/27 12:02:50;;;;;;;0.52;0.52;;;;;;;;;;5020120;28;20053;-85
2021/05/27 12:05:19;;;;;;;0.57;0.50;;;;;;;;;;5018574;28;20391;-85
2021/05/27 12:08:01;;;;;;;1.02;0.60;;;;;;;;;;5020735;28;20037;-85
2021/05/27 12:10:28;;;;;;;0.90;0.55;;;;;;;;;;5019643;28;20029;-85
2021/05/27 12:12:54;;;;;;;1.80;0.70;;;;;;;;;;5019272;28;20033;-85
2021/05/27 12:15:21;;;;;;;0.47;0.47;;;;;;;;;;5020020;28;20078;-85
2021/05/27 12:17:48;;;;;;;0.52;0.40;;;;;;;;;;5019737;28;20033;-86
2021/05/27 12:20:35;;;;;;;0.50;0.50;;;;;;;;;;5020623;28;20037;-85
2021/05/27 12:23:06;;;;;;;1.48;0.68;;;;;;;;;;5021627;28;20018;-85
2021/05/27 12:25:33;;;;;;;0.60;0.60;;;;;;;;;;5022737;28;20029;-85
2021/05/27 12:28:00;;;;;;;0.40;0.40;;;;;;;;;;5011977;28;20030;-85
2021/05/27 12:30:27;;;;;;;0.47;0.47;;;;;;;;;;5006992;28;20038;-85
2021/05/27 12:32:54;;;;;;;1.08;0.80;;;;;;;;;;5001718;28;20026;-85
2021/05/27 12:35:25;;;;;;;1.85;0.98;;;;;;;;;;4999367;28;20022;-85
2021/05/27 12:37:54;;;;;;;0.60;0.60;;;;;;;;;;5017468;28;20341;-85
2021/05/27 12:40:26;;;;;;;0.57;0.57;;;;;;;;;;5018713;28;20018;-85
2021/05/27 12:42:56;;;;;;;0.50;0.50;;;;;;;;;;5020162;28;20029;-85
2021/05/27 12:45:27;;;;;;;0.47;0.43;;;;;;;;;;5022110;28;20056;-85
2021/05/27 12:48:06;;;;;;;1.15;0.43;;;;;;;;;;5004262;28;20030;-85
2021/05/27 12:50:32;;;;;;;0.43;0.40;;;;;;;;;;5006380;28;20031;-85
2021/05/27 12:52:58;;;;;;;1.75;0.60;;;;;;;;;;4998698;28;20033;-85
2021/05/27 12:55:28;;;;;;;0.63;0.63;;;;;;;;;;4999758;28;20053;-85
2021/05/27 12:57:55;;;;;;;1.48;0.50;;;;;;;;;;5000824;28;20513;-84
2021/05/27 13:00:22;;;;;;;0.75;0.57;;;;;;;;;;5007633;28;20029;-84
2021/05/27 13:03:00;;;;;;;0.77;0.60;;;;;;;;;;4999838;28;20085;-85
2021/05/27 13:05:26;;;;;;;0.90;0.45;;;;;;;;;;4999475;28;20502;-84
2021/05/27 13:08:00;;;;;;;1.58;0.65;;;;;;;;;;4998600;28;20057;-84
2021/05/27 13:10:29;;;;;;;0.75;0.50;;;;;;;;;;4999519;28;20491;-84
2021/05/27 13:12:55;;;;;;;3.42;0.52;;;;;;;;;;4998171;28;20550;-84
2021/05/27 13:15:22;;;;;;;3.25;0.63;;;;;;;;;;4999333;28;20093;-85
2021/05/27 13:18:04;;;;;;;0.50;0.50;;;;;;;;;;4998607;28;20082;-84
2021/05/27 13:20:30;;;;;;;0.40;0.40;;;;;;;;;;4997488;28;20082;-85
2021/05/27 13:22:56;;;;;;;0.50;0.50;;;;;;;;;;4996754;28;20041;-86
2021/05/27 13:25:31;;;;;;;1.27;0.60;;;;;;;;;;4998405;28;20553;-85
2021/05/27 13:27:58;;;;;;;0.65;0.40;;;;;;;;;;4998288;28;20033;-85
2021/05/27 13:30:45;;;;;;;1.40;0.57;;;;;;;;;;5017215;28;20030;-85
2021/05/27 13:33:12;;;;;;;0.77;0.45;;;;;;;;;;5018736;28;20022;-85
2021/05/27 13:35:39;;;;;;;0.40;0.40;;;;;;;;;;5023954;28;20026;-86
2021/05/27 13:38:05;;;;;;;1.30;0.93;;;;;;;;;;5021358;28;20018;-84
2021/05/27 13:40:35;;;;;;;2.20;0.85;;;;;;;;;;5019324;28;20053;-85
2021/05/27 13:43:02;;;;;;;0.40;0.40;;;;;;;;;;5023952;28;20126;-86
2021/05/27 13:45:29;;;;;;;1.38;0.55;;;;;;;;;;5023996;28;20017;-86
2021/05/27 13:47:57;;;;;;;0.30;0.30;;;;;;;;;;5024072;28;20030;-86
2021/05/27 13:50:24;;;;;;;1.48;0.70;;;;;;;;;;5023714;28;20040;-86
2021/05/27 13:52:51;;;;;;;0.90;0.80;;;;;;;;;;5022618;28;20479;-85
2021/05/27 13:55:18;;;;;;;2.83;0.80;;;;;;;;;;5042582;22;20038;-80
2021/05/27 13:57:45;;;;;;;0.65;0.45;;;;;;;;;;5030732;28;20553;-80
2021/05/27 14:00:12;;;;;;;0.73;0.70;;;;;;;;;;5040504;28;20020;-79
2021/05/27 14:02:38;;;;;;;0.57;0.43;;;;;;;;;;5040559;28;20021;-80
2021/05/27 14:05:05;;;;;;;1.60;0.52;;;;;;;;;;5042937;28;20033;-80
2021/05/27 14:07:31;;;;;;;1.15;0.63;;;;;;;;;;5038577;28;20115;-80
2021/05/27 14:09:57;;;;;;;0.57;0.50;;;;;;;;;;5041468;28;20034;-80
2021/05/27 14:12:23;;;;;;;0.98;0.50;;;;;;;;;;5041419;28;20044;-80
2021/05/27 14:14:49;;;;;;;1.20;0.63;;;;;;;;;;5042788;28;20065;-80
2021/05/27 14:17:16;;;;;;;3.00;0.63;;;;;;;;;;5002062;28;20100;-80
2021/05/27 14:19:42;;;;;;;0.40;0.40;;;;;;;;;;5004555;28;20045;-79
2021/05/27 14:22:08;;;;;;;0.60;0.40;;;;;;;;;;5003383;28;20098;-82
2021/05/27 14:24:34;;;;;;;1.27;0.57;;;;;;;;;;5004540;28;20102;-80
2021/05/27 14:27:05;;;;;;;1.25;1.00;;;;;;;;;;5037427;28;20029;-80
2021/05/27 14:29:31;;;;;;;0.50;0.40;;;;;;;;;;5024209;28;20025;-80
2021/05/27 14:31:57;;;;;;;0.85;0.50;;;;;;;;;;5022875;28;20054;-80
2021/05/27 14:34:24;;;;;;;2.05;0.60;;;;;;;;;;5024424;28;20053;-80
2021/05/27 14:36:56;;;;;;;1.33;0.55;;;;;;;;;;5039536;28;20109;-84
2021/05/27 14:39:22;;;;;;;3.85;0.70;;;;;;;;;;5050372;28;20254;-79
2021/05/27 14:41:51;;;;;;;2.10;0.73;;;;;;;;;;5052402;28;20025;-79
2021/05/27 14:44:17;;;;;;;0.60;0.60;;;;;;;;;;5042710;28;20126;-79
2021/05/27 14:46:43;;;;;;;4.03;0.52;;;;;;;;;;5033183;28;20022;-80
2021/05/27 14:49:09;;;;;;;2.88;0.70;;;;;;;;;;5046785;28;20040;-80
2021/05/27 14:51:35;;;;;;;0.70;0.70;;;;;;;;;;5047251;28;20456;-79
2021/05/27 14:54:02;;;;;;;0.50;0.50;;;;;;;;;;5046849;28;20180;-80
2021/05/27 14:56:28;;;;;;;1.60;0.43;;;;;;;;;;5035145;28;20118;-80
2021/05/27 14:58:55;;;;;;;2.35;0.43;;;;;;;;;;5036865;28;20113;-81
2021/05/27 15:01:21;;;;;;;0.63;0.30;;;;;;;;;;5042772;28;20025;-79
2021/05/27 15:03:47;;;;;;;0.50;0.50;;;;;;;;;;5039954;28;20030;-79
2021/05/27 15:06:14;;;;;;;1.77;0.60;;;;;;;;;;5038450;28;20116;-79